sensor_id;sensor_type;location;lat;lon;timestamp;P1;durP1;ratioP1;P2;durP2;ratioP2
68940;SDS011;55982;51.476;7.552;2023-04-26T00:01:56;11.18;;;3.88;;
68940;SDS011;55982;51.476;7.552;2023-04-26T00:04:22;12.25;;;4.38;;
68940;SDS011;55982;51.476;7.552;2023-04-26T00:06:49;15.43;;;3.90;;
68940;SDS011;55982;51.476;7.552;2023-04-26T00:09:14;17.98;;;4.45;;
68940;SDS011;55982;51.476;7.552;2023-04-26T00:11:40;11.60;;;4.30;;
68940;SDS011;55982;51.476;7.552;2023-04-26T00:14:05;13.25;;;3.83;;
68940;SDS011;55982;51.476;7.552;2023-04-26T00:16:30;17.88;;;4.15;;
68940;SDS011;55982;51.476;7.552;2023-04-26T00:18:56;14.82;;;4.45;;
68940;SDS011;55982;51.476;7.552;2023-04-26T00:21:21;11.43;;;4.30;;
68940;SDS011;55982;51.476;7.552;2023-04-26T00:23:47;12.90;;;4.20;;
68940;SDS011;55982;51.476;7.552;2023-04-26T00:26:12;15.20;;;4.50;;
68940;SDS011;55982;51.476;7.552;2023-04-26T00:28:37;20.40;;;5.07;;
68940;SDS011;55982;51.476;7.552;2023-04-26T00:31:03;11.32;;;4.32;;
68940;SDS011;55982;51.476;7.552;2023-04-26T00:33:28;13.73;;;4.80;;
68940;SDS011;55982;51.476;7.552;2023-04-26T00:35:54;12.82;;;4.50;;
68940;SDS011;55982;51.476;7.552;2023-04-26T00:38:20;14.10;;;5.35;;
68940;SDS011;55982;51.476;7.552;2023-04-26T00:40:45;8.05;;;3.88;;
68940;SDS011;55982;51.476;7.552;2023-04-26T00:43:10;20.58;;;4.43;;
68940;SDS011;55982;51.476;7.552;2023-04-26T00:45:36;16.70;;;4.65;;
68940;SDS011;55982;51.476;7.552;2023-04-26T00:48:01;11.18;;;5.00;;
68940;SDS011;55982;51.476;7.552;2023-04-26T00:50:28;12.60;;;4.90;;
68940;SDS011;55982;51.476;7.552;2023-04-26T00:52:56;14.00;;;4.57;;
68940;SDS011;55982;51.476;7.552;2023-04-26T00:55:21;17.63;;;5.00;;
68940;SDS011;55982;51.476;7.552;2023-04-26T00:57:47;18.13;;;5.53;;
68940;SDS011;55982;51.476;7.552;2023-04-26T01:00:13;17.00;;;6.05;;
68940;SDS011;55982;51.476;7.552;2023-04-26T01:02:40;12.52;;;4.90;;
68940;SDS011;55982;51.476;7.552;2023-04-26T01:05:06;18.13;;;6.00;;
68940;SDS011;55982;51.476;7.552;2023-04-26T01:07:32;19.52;;;6.35;;
68940;SDS011;55982;51.476;7.552;2023-04-26T01:09:58;15.15;;;5.28;;
68940;SDS011;55982;51.476;7.552;2023-04-26T01:12:24;18.20;;;5.30;;
68940;SDS011;55982;51.476;7.552;2023-04-26T01:14:50;19.50;;;5.07;;
68940;SDS011;55982;51.476;7.552;2023-04-26T01:17:16;16.63;;;5.07;;
68940;SDS011;55982;51.476;7.552;2023-04-26T01:19:45;26.27;;;5.78;;
68940;SDS011;55982;51.476;7.552;2023-04-26T01:22:11;18.25;;;5.47;;
68940;SDS011;55982;51.476;7.552;2023-04-26T01:24:36;12.60;;;5.22;;
68940;SDS011;55982;51.476;7.552;2023-04-26T01:27:03;17.02;;;6.90;;
68940;SDS011;55982;51.476;7.552;2023-04-26T01:29:29;14.95;;;5.80;;
68940;SDS011;55982;51.476;7.552;2023-04-26T01:31:55;20.52;;;6.05;;
68940;SDS011;55982;51.476;7.552;2023-04-26T01:34:21;16.75;;;5.45;;
68940;SDS011;55982;51.476;7.552;2023-04-26T01:36:46;11.32;;;5.70;;
68940;SDS011;55982;51.476;7.552;2023-04-26T01:39:11;19.58;;;7.00;;
68940;SDS011;55982;51.476;7.552;2023-04-26T01:41:37;16.75;;;5.85;;
68940;SDS011;55982;51.476;7.552;2023-04-26T01:44:03;19.17;;;6.70;;
68940;SDS011;55982;51.476;7.552;2023-04-26T01:46:28;15.70;;;5.70;;
68940;SDS011;55982;51.476;7.552;2023-04-26T01:48:53;20.40;;;7.05;;
68940;SDS011;55982;51.476;7.552;2023-04-26T01:51:19;22.42;;;6.57;;
68940;SDS011;55982;51.476;7.552;2023-04-26T01:53:45;14.40;;;6.18;;
68940;SDS011;55982;51.476;7.552;2023-04-26T01:56:10;25.98;;;7.55;;
68940;SDS011;55982;51.476;7.552;2023-04-26T01:58:36;21.02;;;6.75;;
68940;SDS011;55982;51.476;7.552;2023-04-26T02:01:07;21.23;;;6.60;;
68940;SDS011;55982;51.476;7.552;2023-04-26T02:03:33;17.30;;;6.95;;
68940;SDS011;55982;51.476;7.552;2023-04-26T02:05:59;16.00;;;6.13;;
68940;SDS011;55982;51.476;7.552;2023-04-26T02:08:25;17.60;;;7.22;;
68940;SDS011;55982;51.476;7.552;2023-04-26T02:10:50;18.70;;;7.03;;
68940;SDS011;55982;51.476;7.552;2023-04-26T02:13:16;22.63;;;6.78;;
68940;SDS011;55982;51.476;7.552;2023-04-26T02:15:44;22.70;;;6.85;;
68940;SDS011;55982;51.476;7.552;2023-04-26T02:18:10;20.52;;;7.07;;
68940;SDS011;55982;51.476;7.552;2023-04-26T02:20:37;24.45;;;7.35;;
68940;SDS011;55982;51.476;7.552;2023-04-26T02:23:07;28.98;;;7.57;;
68940;SDS011;55982;51.476;7.552;2023-04-26T02:25:32;23.52;;;7.53;;
68940;SDS011;55982;51.476;7.552;2023-04-26T02:27:58;28.23;;;8.35;;
68940;SDS011;55982;51.476;7.552;2023-04-26T02:30:23;27.83;;;8.05;;
68940;SDS011;55982;51.476;7.552;2023-04-26T02:32:48;22.42;;;7.28;;
68940;SDS011;55982;51.476;7.552;2023-04-26T02:35:14;27.42;;;8.02;;
68940;SDS011;55982;51.476;7.552;2023-04-26T02:37:40;26.02;;;8.73;;
68940;SDS011;55982;51.476;7.552;2023-04-26T02:40:05;21.95;;;7.68;;
68940;SDS011;55982;51.476;7.552;2023-04-26T02:42:31;18.35;;;7.22;;
68940;SDS011;55982;51.476;7.552;2023-04-26T02:44:56;23.98;;;7.68;;
68940;SDS011;55982;51.476;7.552;2023-04-26T02:47:22;23.45;;;7.60;;
68940;SDS011;55982;51.476;7.552;2023-04-26T02:49:47;21.73;;;7.85;;
68940;SDS011;55982;51.476;7.552;2023-04-26T02:52:12;19.17;;;7.40;;
68940;SDS011;55982;51.476;7.552;2023-04-26T02:54:38;26.02;;;8.77;;
68940;SDS011;55982;51.476;7.552;2023-04-26T02:57:03;25.38;;;8.40;;
68940;SDS011;55982;51.476;7.552;2023-04-26T02:59:29;24.58;;;8.02;;
68940;SDS011;55982;51.476;7.552;2023-04-26T03:01:54;27.25;;;8.05;;
68940;SDS011;55982;51.476;7.552;2023-04-26T03:04:19;24.60;;;7.63;;
68940;SDS011;55982;51.476;7.552;2023-04-26T03:06:45;23.98;;;8.63;;
68940;SDS011;55982;51.476;7.552;2023-04-26T03:09:10;26.20;;;9.77;;
68940;SDS011;55982;51.476;7.552;2023-04-26T03:11:36;32.13;;;9.52;;
68940;SDS011;55982;51.476;7.552;2023-04-26T03:14:01;24.42;;;9.05;;
68940;SDS011;55982;51.476;7.552;2023-04-26T03:16:26;25.52;;;9.05;;
68940;SDS011;55982;51.476;7.552;2023-04-26T03:18:52;25.83;;;8.93;;
68940;SDS011;55982;51.476;7.552;2023-04-26T03:21:18;26.77;;;9.43;;
68940;SDS011;55982;51.476;7.552;2023-04-26T03:23:44;30.55;;;9.52;;
68940;SDS011;55982;51.476;7.552;2023-04-26T03:26:09;27.88;;;9.10;;
68940;SDS011;55982;51.476;7.552;2023-04-26T03:28:35;28.88;;;10.15;;
68940;SDS011;55982;51.476;7.552;2023-04-26T03:31:00;26.33;;;10.32;;
68940;SDS011;55982;51.476;7.552;2023-04-26T03:33:26;29.50;;;10.30;;
68940;SDS011;55982;51.476;7.552;2023-04-26T03:35:52;32.35;;;9.48;;
68940;SDS011;55982;51.476;7.552;2023-04-26T03:38:17;34.60;;;10.07;;
68940;SDS011;55982;51.476;7.552;2023-04-26T03:40:42;34.78;;;9.93;;
68940;SDS011;55982;51.476;7.552;2023-04-26T03:43:08;31.30;;;10.98;;
68940;SDS011;55982;51.476;7.552;2023-04-26T03:45:33;28.48;;;10.95;;
68940;SDS011;55982;51.476;7.552;2023-04-26T03:47:58;29.60;;;10.90;;
68940;SDS011;55982;51.476;7.552;2023-04-26T03:50:24;32.13;;;12.25;;
68940;SDS011;55982;51.476;7.552;2023-04-26T03:52:49;32.42;;;10.98;;
68940;SDS011;55982;51.476;7.552;2023-04-26T03:55:15;30.48;;;11.23;;
68940;SDS011;55982;51.476;7.552;2023-04-26T03:57:40;33.92;;;12.20;;
68940;SDS011;55982;51.476;7.552;2023-04-26T04:00:06;34.65;;;11.10;;
68940;SDS011;55982;51.476;7.552;2023-04-26T04:02:35;31.48;;;11.45;;
68940;SDS011;55982;51.476;7.552;2023-04-26T04:05:01;36.40;;;11.60;;
68940;SDS011;55982;51.476;7.552;2023-04-26T04:07:26;32.75;;;12.10;;
68940;SDS011;55982;51.476;7.552;2023-04-26T04:09:52;36.05;;;12.48;;
68940;SDS011;55982;51.476;7.552;2023-04-26T04:12:17;32.30;;;12.95;;
68940;SDS011;55982;51.476;7.552;2023-04-26T04:14:42;29.40;;;11.70;;
68940;SDS011;55982;51.476;7.552;2023-04-26T04:17:08;34.00;;;11.07;;
68940;SDS011;55982;51.476;7.552;2023-04-26T04:19:33;37.00;;;13.30;;
68940;SDS011;55982;51.476;7.552;2023-04-26T04:21:58;34.42;;;12.13;;
68940;SDS011;55982;51.476;7.552;2023-04-26T04:24:23;27.40;;;11.70;;
68940;SDS011;55982;51.476;7.552;2023-04-26T04:26:49;34.40;;;13.52;;
68940;SDS011;55982;51.476;7.552;2023-04-26T04:29:15;38.08;;;11.60;;
68940;SDS011;55982;51.476;7.552;2023-04-26T04:31:40;44.22;;;13.43;;
68940;SDS011;55982;51.476;7.552;2023-04-26T04:34:06;40.78;;;14.23;;
68940;SDS011;55982;51.476;7.552;2023-04-26T04:36:32;44.08;;;14.32;;
68940;SDS011;55982;51.476;7.552;2023-04-26T04:38:58;38.88;;;13.73;;
68940;SDS011;55982;51.476;7.552;2023-04-26T04:41:23;49.08;;;15.05;;
68940;SDS011;55982;51.476;7.552;2023-04-26T04:43:48;43.30;;;13.68;;
68940;SDS011;55982;51.476;7.552;2023-04-26T04:46:14;40.88;;;13.32;;
68940;SDS011;55982;51.476;7.552;2023-04-26T04:48:40;47.80;;;16.60;;
68940;SDS011;55982;51.476;7.552;2023-04-26T04:51:07;46.65;;;15.82;;
68940;SDS011;55982;51.476;7.552;2023-04-26T04:53:33;49.20;;;16.55;;
68940;SDS011;55982;51.476;7.552;2023-04-26T04:55:58;45.42;;;15.75;;
68940;SDS011;55982;51.476;7.552;2023-04-26T04:58:23;48.83;;;16.25;;
68940;SDS011;55982;51.476;7.552;2023-04-26T05:00:49;56.95;;;17.70;;
68940;SDS011;55982;51.476;7.552;2023-04-26T05:03:15;53.45;;;18.80;;
68940;SDS011;55982;51.476;7.552;2023-04-26T05:05:41;57.15;;;18.58;;
68940;SDS011;55982;51.476;7.552;2023-04-26T05:08:06;46.00;;;17.52;;
68940;SDS011;55982;51.476;7.552;2023-04-26T05:10:32;48.90;;;17.38;;
68940;SDS011;55982;51.476;7.552;2023-04-26T05:12:58;47.80;;;19.00;;
68940;SDS011;55982;51.476;7.552;2023-04-26T05:15:24;56.50;;;19.33;;
68940;SDS011;55982;51.476;7.552;2023-04-26T05:17:49;53.22;;;17.58;;
68940;SDS011;55982;51.476;7.552;2023-04-26T05:20:15;48.67;;;18.00;;
68940;SDS011;55982;51.476;7.552;2023-04-26T05:22:41;45.42;;;16.27;;
68940;SDS011;55982;51.476;7.552;2023-04-26T05:25:06;52.38;;;18.00;;
68940;SDS011;55982;51.476;7.552;2023-04-26T05:27:33;50.38;;;17.35;;
68940;SDS011;55982;51.476;7.552;2023-04-26T05:29:59;48.08;;;17.70;;
68940;SDS011;55982;51.476;7.552;2023-04-26T05:32:25;43.30;;;16.52;;
68940;SDS011;55982;51.476;7.552;2023-04-26T05:34:51;39.95;;;15.57;;
68940;SDS011;55982;51.476;7.552;2023-04-26T05:37:16;40.40;;;15.50;;
68940;SDS011;55982;51.476;7.552;2023-04-26T05:39:41;37.40;;;16.40;;
68940;SDS011;55982;51.476;7.552;2023-04-26T05:42:07;35.25;;;15.70;;
68940;SDS011;55982;51.476;7.552;2023-04-26T05:44:33;35.95;;;14.48;;
68940;SDS011;55982;51.476;7.552;2023-04-26T05:46:58;44.40;;;15.75;;
68940;SDS011;55982;51.476;7.552;2023-04-26T05:49:24;42.05;;;15.68;;
68940;SDS011;55982;51.476;7.552;2023-04-26T05:51:49;36.28;;;15.80;;
68940;SDS011;55982;51.476;7.552;2023-04-26T05:54:14;38.45;;;14.48;;
68940;SDS011;55982;51.476;7.552;2023-04-26T05:56:40;37.78;;;14.25;;
68940;SDS011;55982;51.476;7.552;2023-04-26T05:59:07;44.90;;;15.25;;
68940;SDS011;55982;51.476;7.552;2023-04-26T06:01:32;37.53;;;15.05;;
68940;SDS011;55982;51.476;7.552;2023-04-26T06:03:58;36.33;;;13.60;;
68940;SDS011;55982;51.476;7.552;2023-04-26T06:06:23;34.67;;;14.02;;
68940;SDS011;55982;51.476;7.552;2023-04-26T06:08:48;32.47;;;14.35;;
68940;SDS011;55982;51.476;7.552;2023-04-26T06:11:14;37.65;;;14.00;;
68940;SDS011;55982;51.476;7.552;2023-04-26T06:13:39;30.33;;;12.43;;
68940;SDS011;55982;51.476;7.552;2023-04-26T06:16:04;30.42;;;12.80;;
68940;SDS011;55982;51.476;7.552;2023-04-26T06:18:30;29.10;;;12.55;;
68940;SDS011;55982;51.476;7.552;2023-04-26T06:20:55;31.52;;;11.88;;
68940;SDS011;55982;51.476;7.552;2023-04-26T06:23:20;28.08;;;11.57;;
68940;SDS011;55982;51.476;7.552;2023-04-26T06:25:46;29.10;;;11.02;;
68940;SDS011;55982;51.476;7.552;2023-04-26T06:28:11;32.92;;;10.95;;
68940;SDS011;55982;51.476;7.552;2023-04-26T06:30:37;21.60;;;9.35;;
68940;SDS011;55982;51.476;7.552;2023-04-26T06:33:02;25.02;;;10.18;;
68940;SDS011;55982;51.476;7.552;2023-04-26T06:35:28;18.10;;;8.75;;
68940;SDS011;55982;51.476;7.552;2023-04-26T06:37:53;29.50;;;9.23;;
68940;SDS011;55982;51.476;7.552;2023-04-26T06:40:18;22.27;;;8.90;;
68940;SDS011;55982;51.476;7.552;2023-04-26T06:42:44;25.05;;;8.57;;
68940;SDS011;55982;51.476;7.552;2023-04-26T06:45:09;16.23;;;6.97;;
68940;SDS011;55982;51.476;7.552;2023-04-26T06:47:35;18.25;;;6.60;;
68940;SDS011;55982;51.476;7.552;2023-04-26T06:50:02;21.42;;;7.30;;
68940;SDS011;55982;51.476;7.552;2023-04-26T06:52:28;22.27;;;7.85;;
68940;SDS011;55982;51.476;7.552;2023-04-26T06:54:54;19.60;;;7.28;;
68940;SDS011;55982;51.476;7.552;2023-04-26T06:57:20;17.55;;;7.70;;
68940;SDS011;55982;51.476;7.552;2023-04-26T06:59:45;18.50;;;6.85;;
68940;SDS011;55982;51.476;7.552;2023-04-26T07:02:11;18.65;;;6.40;;
68940;SDS011;55982;51.476;7.552;2023-04-26T07:04:36;20.00;;;6.68;;
68940;SDS011;55982;51.476;7.552;2023-04-26T07:07:01;23.58;;;7.75;;
68940;SDS011;55982;51.476;7.552;2023-04-26T07:09:27;14.10;;;6.57;;
68940;SDS011;55982;51.476;7.552;2023-04-26T07:11:52;15.65;;;6.88;;
68940;SDS011;55982;51.476;7.552;2023-04-26T07:14:18;14.15;;;6.35;;
68940;SDS011;55982;51.476;7.552;2023-04-26T07:16:43;22.85;;;7.18;;
68940;SDS011;55982;51.476;7.552;2023-04-26T07:19:08;12.85;;;5.40;;
68940;SDS011;55982;51.476;7.552;2023-04-26T07:21:35;15.05;;;5.18;;
68940;SDS011;55982;51.476;7.552;2023-04-26T07:24:00;18.42;;;7.13;;
68940;SDS011;55982;51.476;7.552;2023-04-26T07:26:26;14.45;;;5.70;;
68940;SDS011;55982;51.476;7.552;2023-04-26T07:28:51;16.80;;;5.25;;
68940;SDS011;55982;51.476;7.552;2023-04-26T07:31:17;11.77;;;4.43;;
68940;SDS011;55982;51.476;7.552;2023-04-26T07:33:45;11.00;;;4.90;;
68940;SDS011;55982;51.476;7.552;2023-04-26T07:36:11;10.82;;;4.13;;
68940;SDS011;55982;51.476;7.552;2023-04-26T07:38:36;11.82;;;4.30;;
68940;SDS011;55982;51.476;7.552;2023-04-26T07:41:01;12.95;;;4.18;;
68940;SDS011;55982;51.476;7.552;2023-04-26T07:43:27;9.68;;;4.15;;
68940;SDS011;55982;51.476;7.552;2023-04-26T07:45:52;12.52;;;4.72;;
68940;SDS011;55982;51.476;7.552;2023-04-26T07:48:18;13.27;;;4.53;;
68940;SDS011;55982;51.476;7.552;2023-04-26T07:50:43;12.68;;;4.43;;
68940;SDS011;55982;51.476;7.552;2023-04-26T07:53:09;15.82;;;4.47;;
68940;SDS011;55982;51.476;7.552;2023-04-26T07:55:37;13.52;;;4.03;;
68940;SDS011;55982;51.476;7.552;2023-04-26T07:58:02;14.57;;;3.38;;
68940;SDS011;55982;51.476;7.552;2023-04-26T08:00:28;10.23;;;3.22;;
68940;SDS011;55982;51.476;7.552;2023-04-26T08:02:53;9.50;;;3.47;;
68940;SDS011;55982;51.476;7.552;2023-04-26T08:05:19;10.13;;;3.20;;
68940;SDS011;55982;51.476;7.552;2023-04-26T08:07:44;11.15;;;4.07;;
68940;SDS011;55982;51.476;7.552;2023-04-26T08:10:10;9.40;;;3.63;;
68940;SDS011;55982;51.476;7.552;2023-04-26T08:12:36;15.43;;;3.88;;
68940;SDS011;55982;51.476;7.552;2023-04-26T08:15:02;12.88;;;3.75;;
68940;SDS011;55982;51.476;7.552;2023-04-26T08:17:29;15.20;;;3.78;;
68940;SDS011;55982;51.476;7.552;2023-04-26T08:19:55;6.70;;;3.55;;
68940;SDS011;55982;51.476;7.552;2023-04-26T08:22:21;15.57;;;3.90;;
68940;SDS011;55982;51.476;7.552;2023-04-26T08:24:47;15.43;;;4.00;;
68940;SDS011;55982;51.476;7.552;2023-04-26T08:27:14;13.68;;;3.53;;
68940;SDS011;55982;51.476;7.552;2023-04-26T08:29:39;8.95;;;3.58;;
68940;SDS011;55982;51.476;7.552;2023-04-26T08:32:05;9.30;;;3.40;;
68940;SDS011;55982;51.476;7.552;2023-04-26T08:34:31;7.65;;;2.67;;
68940;SDS011;55982;51.476;7.552;2023-04-26T08:36:56;12.48;;;3.20;;
68940;SDS011;55982;51.476;7.552;2023-04-26T08:39:22;8.98;;;3.58;;
68940;SDS011;55982;51.476;7.552;2023-04-26T08:41:58;13.38;;;3.30;;
68940;SDS011;55982;51.476;7.552;2023-04-26T08:44:29;7.75;;;2.60;;
68940;SDS011;55982;51.476;7.552;2023-04-26T08:47:09;7.32;;;2.17;;
68940;SDS011;55982;51.476;7.552;2023-04-26T08:49:44;5.47;;;2.03;;
68940;SDS011;55982;51.476;7.552;2023-04-26T08:52:14;4.22;;;1.70;;
68940;SDS011;55982;51.476;7.552;2023-04-26T08:54:41;8.68;;;2.15;;
68940;SDS011;55982;51.476;7.552;2023-04-26T08:57:06;7.18;;;2.20;;
68940;SDS011;55982;51.476;7.552;2023-04-26T08:59:34;9.45;;;2.10;;
68940;SDS011;55982;51.476;7.552;2023-04-26T09:02:01;5.90;;;2.30;;
68940;SDS011;55982;51.476;7.552;2023-04-26T09:04:29;3.35;;;1.90;;
68940;SDS011;55982;51.476;7.552;2023-04-26T09:07:01;4.82;;;2.15;;
68940;SDS011;55982;51.476;7.552;2023-04-26T09:09:34;6.57;;;2.40;;
68940;SDS011;55982;51.476;7.552;2023-04-26T09:12:06;4.18;;;2.17;;
68940;SDS011;55982;51.476;7.552;2023-04-26T09:14:32;10.60;;;2.97;;
68940;SDS011;55982;51.476;7.552;2023-04-26T09:16:58;6.75;;;2.40;;
68940;SDS011;55982;51.476;7.552;2023-04-26T09:19:36;6.38;;;2.00;;
68940;SDS011;55982;51.476;7.552;2023-04-26T09:22:03;8.32;;;2.20;;
68940;SDS011;55982;51.476;7.552;2023-04-26T09:24:48;7.93;;;2.42;;
68940;SDS011;55982;51.476;7.552;2023-04-26T09:27:16;7.32;;;2.42;;
68940;SDS011;55982;51.476;7.552;2023-04-26T09:29:58;4.90;;;2.10;;
68940;SDS011;55982;51.476;7.552;2023-04-26T09:32:30;7.47;;;2.45;;
68940;SDS011;55982;51.476;7.552;2023-04-26T09:40:49;9.73;;;3.13;;
68940;SDS011;55982;51.476;7.552;2023-04-26T09:45:44;9.65;;;2.67;;
68940;SDS011;55982;51.476;7.552;2023-04-26T09:48:25;13.70;;;2.83;;
68940;SDS011;55982;51.476;7.552;2023-04-26T09:50:58;18.08;;;3.20;;
68940;SDS011;55982;51.476;7.552;2023-04-26T09:56:19;7.13;;;3.17;;
68940;SDS011;55982;51.476;7.552;2023-04-26T10:01:15;9.60;;;3.15;;
68940;SDS011;55982;51.476;7.552;2023-04-26T10:03:43;9.85;;;3.67;;
68940;SDS011;55982;51.476;7.552;2023-04-26T10:06:09;9.75;;;3.20;;
68940;SDS011;55982;51.476;7.552;2023-04-26T10:08:36;8.23;;;3.25;;
68940;SDS011;55982;51.476;7.552;2023-04-26T10:11:04;8.27;;;3.10;;
68940;SDS011;55982;51.476;7.552;2023-04-26T10:13:42;5.40;;;3.05;;
68940;SDS011;55982;51.476;7.552;2023-04-26T10:16:08;8.82;;;2.58;;
68940;SDS011;55982;51.476;7.552;2023-04-26T10:18:34;9.07;;;3.35;;
68940;SDS011;55982;51.476;7.552;2023-04-26T10:21:18;8.32;;;4.00;;
68940;SDS011;55982;51.476;7.552;2023-04-26T10:23:50;9.60;;;3.20;;
68940;SDS011;55982;51.476;7.552;2023-04-26T10:32:20;12.43;;;3.53;;
68940;SDS011;55982;51.476;7.552;2023-04-26T10:40:42;7.05;;;3.28;;
68940;SDS011;55982;51.476;7.552;2023-04-26T10:45:35;7.88;;;3.15;;
68940;SDS011;55982;51.476;7.552;2023-04-26T10:48:15;7.18;;;2.97;;
68940;SDS011;55982;51.476;7.552;2023-04-26T10:53:24;11.40;;;3.00;;
68940;SDS011;55982;51.476;7.552;2023-04-26T10:55:50;7.65;;;2.70;;
68940;SDS011;55982;51.476;7.552;2023-04-26T10:58:25;6.55;;;3.30;;
68940;SDS011;55982;51.476;7.552;2023-04-26T11:03:35;6.35;;;2.53;;
68940;SDS011;55982;51.476;7.552;2023-04-26T11:06:08;7.05;;;2.80;;
68940;SDS011;55982;51.476;7.552;2023-04-26T11:08:37;7.32;;;3.15;;
68940;SDS011;55982;51.476;7.552;2023-04-26T11:13:32;12.07;;;3.85;;
68940;SDS011;55982;51.476;7.552;2023-04-26T11:16:00;10.85;;;3.85;;
68940;SDS011;55982;51.476;7.552;2023-04-26T11:18:30;8.90;;;4.00;;
68940;SDS011;55982;51.476;7.552;2023-04-26T11:20:57;8.35;;;3.60;;
68940;SDS011;55982;51.476;7.552;2023-04-26T11:23:23;8.32;;;3.83;;
68940;SDS011;55982;51.476;7.552;2023-04-26T11:25:50;8.23;;;3.40;;
68940;SDS011;55982;51.476;7.552;2023-04-26T11:28:15;8.80;;;3.60;;
68940;SDS011;55982;51.476;7.552;2023-04-26T11:30:42;6.60;;;3.53;;
68940;SDS011;55982;51.476;7.552;2023-04-26T11:33:14;10.73;;;3.80;;
68940;SDS011;55982;51.476;7.552;2023-04-26T11:35:51;8.25;;;3.47;;
68940;SDS011;55982;51.476;7.552;2023-04-26T11:38:20;9.25;;;3.38;;
68940;SDS011;55982;51.476;7.552;2023-04-26T11:43:28;12.20;;;4.55;;
68940;SDS011;55982;51.476;7.552;2023-04-26T11:45:59;11.80;;;4.50;;
68940;SDS011;55982;51.476;7.552;2023-04-26T11:48:25;13.75;;;4.75;;
68940;SDS011;55982;51.476;7.552;2023-04-26T11:50:52;9.02;;;4.25;;
68940;SDS011;55982;51.476;7.552;2023-04-26T11:53:17;13.75;;;5.00;;
68940;SDS011;55982;51.476;7.552;2023-04-26T11:55:43;12.60;;;4.75;;
68940;SDS011;55982;51.476;7.552;2023-04-26T11:58:10;14.77;;;5.07;;
68940;SDS011;55982;51.476;7.552;2023-04-26T12:03:32;10.57;;;5.03;;
68940;SDS011;55982;51.476;7.552;2023-04-26T12:06:02;10.00;;;4.80;;
68940;SDS011;55982;51.476;7.552;2023-04-26T12:08:28;12.68;;;4.68;;
68940;SDS011;55982;51.476;7.552;2023-04-26T12:10:59;13.90;;;4.88;;
68940;SDS011;55982;51.476;7.552;2023-04-26T12:13:29;10.52;;;4.65;;
68940;SDS011;55982;51.476;7.552;2023-04-26T12:15:55;11.48;;;5.22;;
68940;SDS011;55982;51.476;7.552;2023-04-26T12:18:20;9.50;;;4.28;;
68940;SDS011;55982;51.476;7.552;2023-04-26T12:20:47;13.27;;;5.15;;
68940;SDS011;55982;51.476;7.552;2023-04-26T12:23:14;12.68;;;5.18;;
68940;SDS011;55982;51.476;7.552;2023-04-26T12:25:41;13.75;;;5.18;;
68940;SDS011;55982;51.476;7.552;2023-04-26T12:28:16;13.23;;;4.97;;
68940;SDS011;55982;51.476;7.552;2023-04-26T12:30:42;11.15;;;5.15;;
68940;SDS011;55982;51.476;7.552;2023-04-26T12:33:07;12.85;;;4.57;;
68940;SDS011;55982;51.476;7.552;2023-04-26T12:35:33;9.77;;;4.85;;
68940;SDS011;55982;51.476;7.552;2023-04-26T12:37:58;12.32;;;5.63;;
68940;SDS011;55982;51.476;7.552;2023-04-26T12:40:26;8.50;;;4.60;;
68940;SDS011;55982;51.476;7.552;2023-04-26T12:42:52;10.68;;;4.55;;
68940;SDS011;55982;51.476;7.552;2023-04-26T12:45:20;10.88;;;4.20;;
68940;SDS011;55982;51.476;7.552;2023-04-26T12:47:46;16.65;;;5.28;;
68940;SDS011;55982;51.476;7.552;2023-04-26T12:50:12;9.98;;;4.63;;
68940;SDS011;55982;51.476;7.552;2023-04-26T12:52:39;11.25;;;5.30;;
68940;SDS011;55982;51.476;7.552;2023-04-26T12:55:08;9.48;;;5.18;;
68940;SDS011;55982;51.476;7.552;2023-04-26T12:57:35;10.40;;;4.75;;
68940;SDS011;55982;51.476;7.552;2023-04-26T13:00:01;13.52;;;5.50;;
68940;SDS011;55982;51.476;7.552;2023-04-26T13:02:28;10.85;;;4.80;;
68940;SDS011;55982;51.476;7.552;2023-04-26T13:04:54;9.93;;;4.65;;
68940;SDS011;55982;51.476;7.552;2023-04-26T13:07:19;9.02;;;5.05;;
68940;SDS011;55982;51.476;7.552;2023-04-26T13:09:45;11.73;;;4.97;;
68940;SDS011;55982;51.476;7.552;2023-04-26T13:12:10;10.02;;;5.10;;
68940;SDS011;55982;51.476;7.552;2023-04-26T13:14:36;15.30;;;5.40;;
68940;SDS011;55982;51.476;7.552;2023-04-26T13:17:03;11.02;;;5.15;;
68940;SDS011;55982;51.476;7.552;2023-04-26T13:19:28;9.98;;;4.63;;
68940;SDS011;55982;51.476;7.552;2023-04-26T13:21:54;9.07;;;4.47;;
68940;SDS011;55982;51.476;7.552;2023-04-26T13:24:19;11.27;;;4.57;;
68940;SDS011;55982;51.476;7.552;2023-04-26T13:26:44;10.60;;;5.00;;
68940;SDS011;55982;51.476;7.552;2023-04-26T13:29:10;10.57;;;4.88;;
68940;SDS011;55982;51.476;7.552;2023-04-26T13:31:35;7.38;;;4.32;;
68940;SDS011;55982;51.476;7.552;2023-04-26T13:34:02;12.43;;;4.40;;
68940;SDS011;55982;51.476;7.552;2023-04-26T13:36:27;10.80;;;4.15;;
68940;SDS011;55982;51.476;7.552;2023-04-26T13:38:53;9.35;;;4.05;;
68940;SDS011;55982;51.476;7.552;2023-04-26T13:41:18;7.53;;;3.70;;
68940;SDS011;55982;51.476;7.552;2023-04-26T13:43:44;7.45;;;3.20;;
68940;SDS011;55982;51.476;7.552;2023-04-26T13:46:09;6.75;;;3.33;;
68940;SDS011;55982;51.476;7.552;2023-04-26T13:48:35;6.80;;;3.28;;
68940;SDS011;55982;51.476;7.552;2023-04-26T13:51:00;8.15;;;3.08;;
68940;SDS011;55982;51.476;7.552;2023-04-26T13:53:26;8.00;;;3.20;;
68940;SDS011;55982;51.476;7.552;2023-04-26T13:55:52;6.28;;;3.15;;
68940;SDS011;55982;51.476;7.552;2023-04-26T13:58:17;6.43;;;3.40;;
68940;SDS011;55982;51.476;7.552;2023-04-26T14:00:42;6.53;;;3.13;;
68940;SDS011;55982;51.476;7.552;2023-04-26T14:03:08;6.30;;;3.42;;
68940;SDS011;55982;51.476;7.552;2023-04-26T14:05:33;7.60;;;4.13;;
68940;SDS011;55982;51.476;7.552;2023-04-26T14:07:58;6.07;;;3.38;;
68940;SDS011;55982;51.476;7.552;2023-04-26T14:10:24;6.05;;;3.15;;
68940;SDS011;55982;51.476;7.552;2023-04-26T14:12:50;8.00;;;3.38;;
68940;SDS011;55982;51.476;7.552;2023-04-26T14:15:15;5.85;;;3.17;;
68940;SDS011;55982;51.476;7.552;2023-04-26T14:17:41;9.90;;;3.72;;
68940;SDS011;55982;51.476;7.552;2023-04-26T14:20:06;8.30;;;3.20;;
68940;SDS011;55982;51.476;7.552;2023-04-26T14:22:34;8.20;;;3.53;;
68940;SDS011;55982;51.476;7.552;2023-04-26T14:24:59;7.00;;;3.65;;
68940;SDS011;55982;51.476;7.552;2023-04-26T14:27:25;7.43;;;3.45;;
68940;SDS011;55982;51.476;7.552;2023-04-26T14:29:50;8.40;;;3.85;;
68940;SDS011;55982;51.476;7.552;2023-04-26T14:32:16;8.25;;;3.38;;
68940;SDS011;55982;51.476;7.552;2023-04-26T14:34:41;7.03;;;3.50;;
68940;SDS011;55982;51.476;7.552;2023-04-26T14:37:07;10.27;;;3.58;;
68940;SDS011;55982;51.476;7.552;2023-04-26T14:39:33;11.02;;;3.40;;
68940;SDS011;55982;51.476;7.552;2023-04-26T14:41:58;6.10;;;3.22;;
68940;SDS011;55982;51.476;7.552;2023-04-26T14:44:24;9.43;;;3.38;;
68940;SDS011;55982;51.476;7.552;2023-04-26T14:46:49;8.77;;;3.70;;
68940;SDS011;55982;51.476;7.552;2023-04-26T14:49:15;7.07;;;3.80;;
68940;SDS011;55982;51.476;7.552;2023-04-26T14:51:40;6.15;;;3.42;;
68940;SDS011;55982;51.476;7.552;2023-04-26T14:54:05;6.82;;;4.18;;
68940;SDS011;55982;51.476;7.552;2023-04-26T14:56:32;7.00;;;3.28;;
68940;SDS011;55982;51.476;7.552;2023-04-26T14:58:58;8.90;;;3.47;;
68940;SDS011;55982;51.476;7.552;2023-04-26T15:01:25;8.13;;;3.28;;
68940;SDS011;55982;51.476;7.552;2023-04-26T15:03:50;8.55;;;2.90;;
68940;SDS011;55982;51.476;7.552;2023-04-26T15:06:15;10.90;;;3.42;;
68940;SDS011;55982;51.476;7.552;2023-04-26T15:08:41;9.18;;;3.80;;
68940;SDS011;55982;51.476;7.552;2023-04-26T15:11:06;6.72;;;3.58;;
68940;SDS011;55982;51.476;7.552;2023-04-26T15:13:31;10.23;;;3.25;;